Time;durP1;ratioP1;P1;durP2;ratioP2;P2;SDS_P1;SDS_P2;PMS_P1;PMS_P2;Temp;Humidity;BMP_temperature;BMP_pressure;BME280_temperature;BME280_humidity;BME280_pressure;Samples;Min_cycle;Max_cycle;Signal;HPM_P1;HPM_P2
2023/07/28 00:04:50;;;;;;;10.43;7.72;;;;;;;-144.32;100.00;68061.97;10269105;28;20051;-77
2023/07/28 00:09:56;;;;;;;8.55;7.20;;;;;;;-144.32;100.00;68061.97;10272536;28;20038;-77
2023/07/28 00:15:05;;;;;;;8.00;6.78;;;;;;;-144.32;100.00;68061.97;10269908;28;20050;-78
2023/07/28 00:20:15;;;;;;;9.45;6.75;;;;;;;-144.32;100.00;68061.97;10243312;28;20057;-81
2023/07/28 00:25:26;;;;;;;7.20;6.50;;;;;;;-144.32;100.00;68061.97;10274758;28;20049;-80
2023/07/28 00:30:31;;;;;;;11.60;8.50;;;;;;;-144.32;100.00;68061.97;10270455;28;20361;-77
2023/07/28 00:35:35;;;;;;;10.70;7.65;;;;;;;-144.32;100.00;68061.97;10261846;28;20046;-78
2023/07/28 00:40:47;;;;;;;8.25;6.50;;;;;;;-144.32;100.00;68061.97;10273711;28;20368;-78
2023/07/28 00:45:54;;;;;;;8.57;6.68;;;;;;;-144.32;100.00;68061.97;10271337;28;20042;-77
2023/07/28 00:51:00;;;;;;;10.38;6.88;;;;;;;-144.32;100.00;68061.97;10273175;28;20047;-77
2023/07/28 00:56:10;;;;;;;10.18;7.20;;;;;;;-144.32;100.00;68061.97;10280493;28;20071;-76
2023/07/28 01:01:17;;;;;;;9.75;7.80;;;;;;;-144.32;100.00;68061.97;10274702;28;20113;-76
2023/07/28 01:06:34;;;;;;;8.43;6.85;;;;;;;-144.32;100.00;68061.97;10272218;28;20038;-77
2023/07/28 01:11:38;;;;;;;10.40;7.18;;;;;;;-144.32;100.00;68061.97;10256896;28;20042;-76
2023/07/28 01:16:47;;;;;;;9.05;7.00;;;;;;;-144.32;100.00;68061.97;10255957;28;20043;-77
2023/07/28 01:22:04;;;;;;;9.88;6.97;;;;;;;-144.32;100.00;68061.97;10258824;28;20047;-77
2023/07/28 01:27:07;;;;;;;8.10;6.25;;;;;;;-144.32;100.00;68061.97;10270571;28;20070;-78
2023/07/28 01:32:17;;;;;;;8.80;6.10;;;;;;;-144.32;100.00;68061.97;10258839;28;20050;-77
2023/07/28 01:37:42;;;;;;;6.80;5.90;;;;;;;-144.32;100.00;68061.97;10274721;28;20047;-78
2023/07/28 01:42:47;;;;;;;9.38;6.22;;;;;;;-144.32;100.00;68061.97;10272203;28;20039;-78
2023/07/28 01:47:55;;;;;;;8.13;6.07;;;;;;;-144.32;100.00;68061.97;10271818;28;20046;-77
2023/07/28 01:53:05;;;;;;;8.27;6.45;;;;;;;-144.32;100.00;68061.97;10273775;28;20046;-78
2023/07/28 01:58:09;;;;;;;8.80;6.40;;;;;;;-144.32;100.00;68061.97;10272830;28;20047;-78
2023/07/28 02:03:16;;;;;;;10.23;7.57;;;;;;;-144.32;100.00;68061.97;10273091;28;20578;-79
2023/07/28 02:08:28;;;;;;;11.00;7.68;;;;;;;-144.32;100.00;68061.97;10283121;28;20074;-78
2023/07/28 02:13:43;;;;;;;10.73;8.05;;;;;;;-144.32;100.00;68061.97;10268813;28;20157;-76
2023/07/28 02:19:30;;;;;;;11.75;8.38;;;;;;;-144.32;100.00;68061.97;10284062;28;20050;-77
2023/07/28 02:24:50;;;;;;;13.32;7.93;;;;;;;-144.32;100.00;68061.97;10265905;28;20043;-77
2023/07/28 02:30:00;;;;;;;10.57;7.72;;;;;;;-144.32;100.00;68061.97;10286241;28;20038;-77
2023/07/28 02:35:21;;;;;;;9.27;6.82;;;;;;;-144.32;100.00;68061.97;10272929;28;20062;-78
2023/07/28 02:40:45;;;;;;;10.52;5.63;;;;;;;-144.32;100.00;68061.97;10273225;28;20038;-79
2023/07/28 02:46:36;;;;;;;8.05;4.68;;;;;;;-144.32;100.00;68061.97;10290491;28;20030;-80
2023/07/28 02:52:16;;;;;;;6.38;4.32;;;;;;;-144.32;100.00;68061.97;10273011;28;20105;-76
2023/07/28 02:57:29;;;;;;;7.38;4.10;;;;;;;-144.32;100.00;68061.97;10252077;28;20186;-77
2023/07/28 03:02:45;;;;;;;6.50;4.40;;;;;;;-144.32;100.00;68061.97;10271703;28;20050;-78
2023/07/28 03:08:11;;;;;;;6.60;5.07;;;;;;;-144.32;100.00;68061.97;10257611;28;20130;-78
2023/07/28 03:13:25;;;;;;;8.25;4.60;;;;;;;-144.32;100.00;68061.97;10269483;28;20062;-78
2023/07/28 03:18:38;;;;;;;6.35;5.18;;;;;;;-144.32;100.00;68061.97;10273304;28;20074;-81
2023/07/28 03:23:47;;;;;;;8.90;6.65;;;;;;;-144.32;100.00;68061.97;10271363;28;20058;-81
2023/07/28 03:29:08;;;;;;;9.07;6.63;;;;;;;-144.32;100.00;68061.97;10276100;28;20475;-82
2023/07/28 03:34:31;;;;;;;11.07;6.95;;;;;;;-144.32;100.00;68061.97;10256141;28;20146;-82
2023/07/28 03:39:48;;;;;;;9.32;7.15;;;;;;;-144.32;100.00;68061.97;10260682;28;20105;-79
2023/07/28 03:45:45;;;;;;;11.35;7.03;;;;;;;-144.32;100.00;68061.97;10256787;28;20051;-81
2023/07/28 03:51:36;;;;;;;10.38;7.50;;;;;;;-144.32;100.00;68061.97;10290739;28;20068;-82
2023/07/28 03:56:48;;;;;;;9.32;7.00;;;;;;;-144.32;100.00;68061.97;10276627;28;20046;-77
2023/07/28 04:02:07;;;;;;;8.52;6.22;;;;;;;-144.32;100.00;68061.97;10272504;28;20173;-78
2023/07/28 04:07:57;;;;;;;7.63;5.45;;;;;;;-144.32;100.00;68061.97;10255148;28;20051;-77
2023/07/28 04:13:33;;;;;;;7.47;5.93;;;;;;;-144.32;100.00;68061.97;10261866;28;20054;-78
2023/07/28 04:19:33;;;;;;;11.77;7.40;;;;;;;-144.32;100.00;68061.97;10296765;28;20059;-79
2023/07/28 04:24:56;;;;;;;10.60;6.90;;;;;;;-144.32;100.00;68061.97;10288299;28;20045;-79
2023/07/28 04:30:06;;;;;;;10.73;7.93;;;;;;;-144.32;100.00;68061.97;10276649;28;20050;-79
2023/07/28 04:35:15;;;;;;;9.13;7.00;;;;;;;-144.32;100.00;68061.97;10283963;28;20327;-80
2023/07/28 04:40:49;;;;;;;13.13;8.93;;;;;;;-144.32;100.00;68061.97;10313445;28;20102;-81
2023/07/28 04:46:03;;;;;;;13.55;9.38;;;;;;;-144.32;100.00;68061.97;10279175;28;20058;-83
2023/07/28 04:51:08;;;;;;;13.77;9.68;;;;;;;-144.32;100.00;68061.97;10285723;28;20077;-78
2023/07/28 04:56:29;;;;;;;17.27;10.98;;;;;;;-144.32;100.00;68061.97;10275859;28;20085;-79
2023/07/28 05:01:34;;;;;;;14.60;10.27;;;;;;;-144.32;100.00;68061.97;10270770;28;20068;-83
2023/07/28 05:06:44;;;;;;;14.88;9.73;;;;;;;-144.32;100.00;68061.97;10285817;28;20110;-76
2023/07/28 05:11:48;;;;;;;20.00;11.50;;;;;;;-144.32;100.00;68061.97;10276978;28;20038;-77
2023/07/28 05:17:02;;;;;;;21.45;11.68;;;;;;;-144.32;100.00;68061.97;10256340;28;20050;-76
2023/07/28 05:22:35;;;;;;;20.17;12.43;;;;;;;-144.32;100.00;68061.97;10271761;28;20077;-78
2023/07/28 05:28:16;;;;;;;15.38;11.20;;;;;;;-144.32;100.00;68061.97;10256587;28;20074;-74
2023/07/28 05:33:47;;;;;;;17.70;11.77;;;;;;;-144.32;100.00;68061.97;10257355;28;20491;-74
2023/07/28 05:38:57;;;;;;;16.23;11.88;;;;;;;-144.32;100.00;68061.97;10269665;28;20144;-77
2023/07/28 05:44:13;;;;;;;19.07;13.30;;;;;;;-144.32;100.00;68061.97;10254685;28;20051;-79
2023/07/28 05:49:31;;;;;;;19.48;12.50;;;;;;;-144.32;100.00;68061.97;10255180;28;20047;-76
2023/07/28 05:54:48;;;;;;;14.23;10.95;;;;;;;-144.32;100.00;68061.97;10264602;28;20089;-78
2023/07/28 06:00:13;;;;;;;17.65;13.02;;;;;;;-144.32;100.00;68061.97;10271411;28;20166;-80
2023/07/28 06:05:23;;;;;;;17.38;11.60;;;;;;;-144.32;100.00;68061.97;10278216;28;20137;-78
2023/07/28 06:10:24;;;;;;;15.10;11.13;;;;;;;-144.32;100.00;68061.97;10275783;28;20174;-77
2023/07/28 06:15:24;;;;;;;16.20;10.57;;;;;;;-144.32;100.00;68061.97;10262464;28;20042;-77
2023/07/28 06:20:25;;;;;;;12.43;9.52;;;;;;;-144.32;100.00;68061.97;10243466;28;20054;-78
2023/07/28 06:25:26;;;;;;;17.70;11.18;;;;;;;-144.32;100.00;68061.97;10259857;28;20554;-84
2023/07/28 06:30:26;;;;;;;18.15;11.40;;;;;;;-144.32;100.00;68061.97;10288524;28;20055;-81
2023/07/28 06:35:27;;;;;;;16.27;10.48;;;;;;;-144.32;100.00;68061.97;10277880;28;20043;-80
2023/07/28 06:40:28;;;;;;;14.07;10.52;;;;;;;-144.32;100.00;68061.97;10261701;28;20043;-80
2023/07/28 06:45:29;;;;;;;17.25;11.75;;;;;;;-144.32;100.00;68061.97;10267120;28;20047;-82
2023/07/28 06:50:29;;;;;;;15.75;10.52;;;;;;;-144.32;100.00;68061.97;10308767;28;20022;-80
2023/07/28 06:55:30;;;;;;;17.92;11.48;;;;;;;-144.32;100.00;68061.97;10287772;28;20494;-83
2023/07/28 07:00:33;;;;;;;17.88;11.32;;;;;;;-144.32;100.00;68061.97;10287065;28;20038;-83
2023/07/28 07:05:35;;;;;;;12.25;9.48;;;;;;;-144.32;100.00;68061.97;10272459;28;20763;-83
2023/07/28 07:10:35;;;;;;;16.58;11.05;;;;;;;-144.32;100.00;68061.97;10281239;28;20047;-82
2023/07/28 07:15:36;;;;;;;14.45;10.18;;;;;;;-144.32;100.00;68061.97;10292718;28;20098;-81
2023/07/28 07:20:38;;;;;;;15.30;9.65;;;;;;;-144.32;100.00;68061.97;10271500;28;20050;-82
2023/07/28 07:25:39;;;;;;;9.77;7.83;;;;;;;-144.32;100.00;68061.97;10299238;28;20074;-82
2023/07/28 07:30:40;;;;;;;8.93;7.15;;;;;;;-144.32;100.00;68061.97;10313728;28;20560;-80
2023/07/28 07:35:42;;;;;;;8.25;6.22;;;;;;;-144.32;100.00;68061.97;10324544;28;20034;-81
2023/07/28 07:40:46;;;;;;;8.38;6.32;;;;;;;-144.32;100.00;68061.97;10313553;28;20049;-84
2023/07/28 07:45:47;;;;;;;7.57;5.95;;;;;;;-144.32;100.00;68061.97;10303576;28;20038;-81
2023/07/28 07:50:47;;;;;;;9.15;6.47;;;;;;;-144.32;100.00;68061.97;10316502;28;20786;-80
2023/07/28 07:55:49;;;;;;;6.65;5.53;;;;;;;-144.32;100.00;68061.97;10302916;28;20046;-77
2023/07/28 08:00:49;;;;;;;5.93;5.33;;;;;;;-144.32;100.00;68061.97;10272724;28;20051;-79
2023/07/28 08:05:51;;;;;;;7.03;5.50;;;;;;;-144.32;100.00;68061.97;10269758;28;20054;-78
2023/07/28 08:10:52;;;;;;;4.72;4.00;;;;;;;-144.32;100.00;68061.97;10276214;28;20078;-78
2023/07/28 08:15:52;;;;;;;5.50;4.43;;;;;;;-144.32;100.00;68061.97;10267286;28;20054;-79
2023/07/28 08:20:53;;;;;;;7.80;5.50;;;;;;;-144.32;100.00;68061.97;10273145;28;20573;-78
2023/07/28 08:25:53;;;;;;;5.30;4.70;;;;;;;-144.32;100.00;68061.97;10268960;28;20047;-77
2023/07/28 08:30:56;;;;;;;4.28;3.88;;;;;;;-144.32;100.00;68061.97;10247923;28;20050;-79
2023/07/28 08:35:57;;;;;;;6.20;4.15;;;;;;;-144.32;100.00;68061.97;10266589;28;20055;-76
2023/07/28 08:40:58;;;;;;;3.97;3.53;;;;;;;-144.32;79.96;97821.84;10255177;28;20055;-77
2023/07/28 08:45:58;;;;;;;5.50;3.67;;;;;;;;;;10253727;28;20087;-77
2023/07/28 08:50:59;;;;;;;4.13;3.13;;;;;;;-144.32;100.00;68061.97;10267942;28;20089;-78
2023/07/28 08:55:59;;;;;;;4.03;3.60;;;;;;;-144.32;100.00;68061.97;10272180;28;20121;-75
2023/07/28 09:01:04;;;;;;;4.05;3.30;;;;;;;-144.32;100.00;68061.97;10277338;28;20098;-75
2023/07/28 09:06:08;;;;;;;3.38;3.05;;;;;;;-144.32;100.00;68061.97;10282572;28;20446;-77
2023/07/28 09:11:08;;;;;;;7.32;6.45;;;;;;;-144.32;100.00;68061.97;10276067;28;20185;-76
2023/07/28 09:16:20;;;;;;;3.30;2.53;;;;;;;-144.32;100.00;68061.97;10273603;28;20073;-77
2023/07/28 09:21:21;;;;;;;2.60;1.92;;;;;;;-144.32;100.00;68061.97;10275965;28;20046;-79
2023/07/28 09:26:21;;;;;;;2.08;1.70;;;;;;;-144.32;100.00;68061.97;10263949;28;20042;-76
2023/07/28 09:31:30;;;;;;;2.50;1.73;;;;;;;-144.32;100.00;68061.97;10272333;28;20042;-77
2023/07/28 09:36:34;;;;;;;2.25;1.50;;;;;;;-144.32;100.00;68061.97;10274775;28;20051;-77
2023/07/28 09:41:37;;;;;;;1.65;1.45;;;;;;;-144.32;100.00;68061.97;10276868;28;20090;-76
2023/07/28 09:46:47;;;;;;;2.03;1.88;;;;;;;-144.32;100.00;68061.97;10274381;28;20034;-77
2023/07/28 09:51:52;;;;;;;2.03;1.58;;;;;;;-144.32;100.00;68061.97;10275542;28;20049;-78
2023/07/28 09:56:58;;;;;;;2.28;2.08;;;;;;;-144.32;100.00;68061.97;10277079;28;20069;-76
2023/07/28 10:02:00;;;;;;;2.15;1.70;;;;;;;-144.32;100.00;68061.97;10272115;28;20054;-76
2023/07/28 10:07:01;;;;;;;3.03;1.40;;;;;;;-144.32;100.00;68061.97;10271135;28;20057;-77
2023/07/28 10:12:03;;;;;;;1.50;1.40;;;;;;;-144.32;100.00;68061.97;10273605;28;20330;-78
2023/07/28 10:17:05;;;;;;;1.75;1.60;;;;;;;-144.32;100.00;68061.97;10270215;28;20046;-77
2023/07/28 10:22:08;;;;;;;4.55;2.30;;;;;;;-144.32;100.00;68061.97;10270518;28;20062;-79
2023/07/28 10:27:08;;;;;;;2.03;1.77;;;;;;;-144.32;100.00;68061.97;10270766;28;20490;-77
2023/07/28 10:32:24;;;;;;;1.80;1.70;;;;;;;-144.32;100.00;68061.97;10269740;28;20046;-77
2023/07/28 10:37:25;;;;;;;2.20;2.00;;;;;;;-144.32;100.00;68061.97;10271665;28;20043;-77
2023/07/28 10:42:26;;;;;;;2.25;1.70;;;;;;;-144.32;100.00;68061.97;10268133;28;20043;-78
2023/07/28 10:47:28;;;;;;;;;;;;;;;-144.32;100.00;68061.97;10271407;28;20057;-79
2023/07/28 10:52:28;;;;;;;2.20;2.00;;;;;;;-144.32;100.00;68061.97;10247581;28;20033;-78
2023/07/28 10:57:29;;;;;;;2.40;2.20;;;;;;;-144.32;100.00;68061.97;10268813;28;20769;-77
2023/07/28 11:02:31;;;;;;;2.50;2.30;;;;;;;-144.32;100.00;68061.97;10265424;28;20054;-77
2023/07/28 11:07:31;;;;;;;2.40;2.13;;;;;;;-144.32;100.00;68061.97;10269450;28;20042;-77
2023/07/28 11:12:33;;;;;;;2.65;2.28;;;;;;;-144.32;100.00;68061.97;10271178;28;20046;-76
2023/07/28 11:17:33;;;;;;;2.22;2.03;;;;;;;-144.32;100.00;68061.97;10254666;28;20043;-79
2023/07/28 11:22:36;;;;;;;2.80;2.00;;;;;;;-144.32;100.00;68061.97;10264137;28;20043;-77
2023/07/28 11:27:38;;;;;;;2.70;1.80;;;;;;;-144.32;100.00;68061.97;10265516;28;20443;-76
2023/07/28 11:32:42;;;;;;;3.95;3.45;;;;;;;-144.32;100.00;68061.97;10266448;28;20119;-77
2023/07/28 11:37:46;;;;;;;4.80;3.03;;;;;;;-144.32;100.00;68061.97;10270513;28;20050;-79
2023/07/28 11:42:53;;;;;;;3.28;1.60;;;;;;;-144.32;100.00;68061.97;10271421;28;20053;-80
2023/07/28 11:48:02;;;;;;;3.10;2.55;;;;;;;-144.32;100.00;68061.97;10263628;28;20042;-77
2023/07/28 11:53:03;;;;;;;1.70;1.60;;;;;;;-144.32;100.00;68061.97;10255606;28;20133;-77
2023/07/28 11:58:07;;;;;;;1.77;1.67;;;;;;;-144.32;100.00;68061.97;10267246;28;20039;-78
2023/07/28 12:03:10;;;;;;;1.95;1.75;;;;;;;-144.32;100.00;68061.97;10269728;28;20050;-79
2023/07/28 12:08:11;;;;;;;1.75;1.60;;;;;;;-144.32;100.00;68061.97;10231888;28;20201;-79
2023/07/28 12:13:11;;;;;;;1.58;1.48;;;;;;;-144.32;100.00;68061.97;10266674;28;20053;-77
2023/07/28 12:18:14;;;;;;;1.70;1.60;;;;;;;-144.32;100.00;68061.97;10266694;28;20388;-76
2023/07/28 12:23:16;;;;;;;1.70;1.60;;;;;;;-144.32;100.00;68061.97;10269993;28;20360;-77
2023/07/28 12:28:17;;;;;;;1.67;1.58;;;;;;;-144.32;100.00;68061.97;10268711;28;20053;-78
2023/07/28 12:33:18;;;;;;;2.55;1.58;;;;;;;-144.32;100.00;68061.97;10274264;28;20402;-79
2023/07/28 12:38:18;;;;;;;1.83;1.73;;;;;;;-144.32;100.00;68061.97;10282805;28;20038;-77
2023/07/28 12:43:19;;;;;;;2.00;1.73;;;;;;;-144.32;100.00;68061.97;10242233;28;20105;-80
2023/07/28 12:48:19;;;;;;;1.52;1.40;;;;;;;-144.32;100.00;68061.97;10282613;28;20125;-75
2023/07/28 12:53:20;;;;;;;1.40;1.30;;;;;;;-144.32;100.00;68061.97;10274372;28;20045;-77
2023/07/28 12:58:20;;;;;;;1.20;1.10;;;;;;;-144.32;100.00;68061.97;10278417;28;20117;-78
2023/07/28 13:03:21;;;;;;;1.30;1.20;;;;;;;-144.32;100.00;68061.97;10280081;28;20149;-79
2023/07/28 13:08:21;;;;;;;1.50;1.30;;;;;;;-144.32;100.00;68061.97;10280549;28;20050;-80
2023/07/28 13:13:22;;;;;;;2.25;1.38;;;;;;;-144.32;100.00;68061.97;10280672;28;20047;-80
2023/07/28 13:18:24;;;;;;;1.70;1.50;;;;;;;-144.32;100.00;68061.97;10282686;28;20062;-83
2023/07/28 13:23:25;;;;;;;1.88;1.50;;;;;;;-144.32;100.00;68061.97;10278261;28;20043;-79
2023/07/28 13:28:26;;;;;;;1.60;1.50;;;;;;;-144.32;100.00;68061.97;10274781;28;20046;-77
2023/07/28 13:33:26;;;;;;;2.13;1.50;;;;;;;-144.32;100.00;68061.97;10295172;28;20042;-77
2023/07/28 13:38:27;;;;;;;1.27;1.17;;;;;;;-144.32;100.00;68061.97;10278563;28;20046;-78
2023/07/28 13:43:27;;;;;;;2.67;1.60;;;;;;;-144.32;100.00;68061.97;10275154;28;20050;-78
2023/07/28 13:48:28;;;;;;;1.60;1.50;;;;;;;-144.32;100.00;68061.97;10279607;28;20043;-81
2023/07/28 13:53:28;;;;;;;2.75;2.17;;;;;;;-144.32;100.00;68061.97;10259678;28;20047;-79
2023/07/28 13:58:29;;;;;;;1.55;1.45;;;;;;;-144.32;100.00;68061.97;10279137;28;20043;-78
2023/07/28 14:03:29;;;;;;;2.88;2.40;;;;;;;-144.32;100.00;68061.97;10274637;28;20034;-79
2023/07/28 14:08:30;;;;;;;3.30;1.50;;;;;;;-144.32;100.00;68061.97;10273448;28;20854;-83
2023/07/28 14:13:33;;;;;;;2.22;1.88;;;;;;;-144.32;100.00;68061.97;10271104;28;20057;-79
2023/07/28 14:18:33;;;;;;;2.10;1.67;;;;;;;-144.32;100.00;68061.97;10278872;28;20046;-79
2023/07/28 14:23:34;;;;;;;2.25;1.65;;;;;;;-144.32;100.00;68061.97;10271106;28;20282;-78
2023/07/28 14:28:36;;;;;;;1.92;1.73;;;;;;;-144.32;100.00;68061.97;10276559;28;20102;-79
2023/07/28 14:33:36;;;;;;;2.78;1.80;;;;;;;-144.32;100.00;68061.97;10277848;28;20049;-79
2023/07/28 14:38:37;;;;;;;1.90;1.63;;;;;;;-144.32;100.00;68061.97;10278071;28;20081;-78
2023/07/28 14:43:38;;;;;;;2.75;1.60;;;;;;;-144.32;100.00;68061.97;10281099;28;20043;-78
2023/07/28 14:48:39;;;;;;;2.30;1.40;;;;;;;-144.32;100.00;68061.97;10263032;28;20046;-79
2023/07/28 14:53:40;;;;;;;3.63;1.58;;;;;;;-144.32;100.00;68061.97;10283962;28;20043;-80
2023/07/28 14:58:40;;;;;;;1.80;1.70;;;;;;;-144.32;100.00;68061.97;10256741;28;20042;-79
2023/07/28 15:03:41;;;;;;;1.70;1.50;;;;;;;-144.32;100.00;68061.97;10274515;28;20046;-78
2023/07/28 15:08:41;;;;;;;1.85;1.73;;;;;;;-144.32;100.00;68061.97;10275678;28;20113;-80
2023/07/28 15:13:42;;;;;;;1.88;1.77;;;;;;;-144.32;100.00;68061.97;10292025;28;20046;-79
2023/07/28 15:18:42;;;;;;;1.92;1.77;;;;;;;-144.32;100.00;68061.97;10274405;28;20043;-80
2023/07/28 15:23:43;;;;;;;2.22;2.00;;;;;;;-144.32;100.00;68061.97;10266793;28;20129;-78
2023/07/28 15:28:43;;;;;;;2.50;1.80;;;;;;;-144.32;100.00;68061.97;10274781;28;20133;-83
2023/07/28 15:33:44;;;;;;;2.22;2.03;;;;;;;-144.32;100.00;68061.97;10240793;28;20047;-78
2023/07/28 15:38:45;;;;;;;2.60;2.25;;;;;;;-144.32;100.00;68061.97;10275561;28;20890;-78
2023/07/28 15:43:48;;;;;;;2.83;1.85;;;;;;;-144.32;100.00;68061.97;10272606;28;20073;-82
2023/07/28 15:48:48;;;;;;;2.67;1.80;;;;;;;-144.32;100.00;68061.97;10275630;28;20121;-79
2023/07/28 15:53:50;;;;;;;1.70;1.60;;;;;;;-144.32;100.00;68061.97;10270930;28;20043;-80
2023/07/28 15:58:52;;;;;;;2.87;1.70;;;;;;;-144.32;100.00;68061.97;10261801;28;20129;-79
2023/07/28 16:03:52;;;;;;;1.80;1.43;;;;;;;-144.32;100.00;68061.97;10269978;28;20290;-80
2023/07/28 16:08:53;;;;;;;1.40;1.30;;;;;;;-144.32;100.00;68061.97;10272458;28;20321;-79
2023/07/28 16:13:54;;;;;;;1.33;1.10;;;;;;;-144.32;100.00;68061.97;10269937;28;20038;-81
2023/07/28 16:18:55;;;;;;;1.40;1.30;;;;;;;-144.32;100.00;68061.97;10248336;28;20047;-79
2023/07/28 16:23:59;;;;;;;1.40;1.30;;;;;;;-144.32;100.00;68061.97;10271398;28;20050;-80
2023/07/28 16:28:59;;;;;;;1.55;1.25;;;;;;;-144.32;100.00;68061.97;10273737;28;20042;-81
2023/07/28 16:34:00;;;;;;;1.90;1.50;;;;;;;-144.32;100.00;68061.97;10255818;28;20339;-78
2023/07/28 16:39:02;;;;;;;;;;;;;;;-144.32;100.00;68061.97;10275110;28;20047;-79
2023/07/28 16:44:02;;;;;;;1.23;1.13;;;;;;;-144.32;100.00;68061.97;10284010;28;19922;-79
2023/07/28 16:49:04;;;;;;;2.33;1.30;;;;;;;-144.32;100.00;68061.97;10286376;28;20090;-78
2023/07/28 16:54:05;;;;;;;2.42;1.38;;;;;;;-144.32;100.00;68061.97;10279793;28;21139;-78
2023/07/28 16:59:05;;;;;;;2.30;1.20;;;;;;;-144.32;100.00;68061.97;10280398;28;20053;-78
2023/07/28 17:04:06;;;;;;;1.50;1.30;;;;;;;-144.32;100.00;68061.97;10267083;28;20057;-77
2023/07/28 17:09:06;;;;;;;2.47;1.80;;;;;;;-144.32;100.00;68061.97;10269972;28;20058;-78
2023/07/28 17:14:08;;;;;;;2.08;1.60;;;;;;;-144.32;100.00;68061.97;10266055;28;20043;-79
2023/07/28 17:19:09;;;;;;;2.35;1.67;;;;;;;-144.32;100.00;68061.97;10270692;28;20038;-78
2023/07/28 17:24:09;;;;;;;2.92;2.63;;;;;;;-144.32;100.00;68061.97;10280889;28;20411;-78
2023/07/28 17:29:10;;;;;;;1.92;1.63;;;;;;;-144.32;100.00;68061.97;10275086;28;20047;-80
2023/07/28 17:34:10;;;;;;;1.92;1.67;;;;;;;-144.32;100.00;68061.97;10271826;28;20138;-76
2023/07/28 17:39:11;;;;;;;2.28;1.85;;;;;;;-144.32;100.00;68061.97;10273492;28;20042;-79
2023/07/28 17:44:11;;;;;;;1.70;1.60;;;;;;;-144.32;100.00;68061.97;10271842;28;20099;-78
2023/07/28 17:49:12;;;;;;;3.83;2.10;;;;;;;-144.32;100.00;68061.97;10277186;28;20113;-78
2023/07/28 17:54:12;;;;;;;2.55;1.90;;;;;;;-144.32;100.00;68061.97;10253534;28;20054;-79
2023/07/28 17:59:13;;;;;;;2.28;1.80;;;;;;;-144.32;100.00;68061.97;10214846;29;20050;-77
2023/07/28 18:04:13;;;;;;;2.97;2.08;;;;;;;-144.32;100.00;68061.97;10207484;29;20051;-77
2023/07/28 18:09:14;;;;;;;2.90;2.00;;;;;;;-144.32;100.00;68061.97;10187457;29;20137;-73
2023/07/28 18:14:15;;;;;;;2.15;1.67;;;;;;;-144.32;100.00;68061.97;10203211;28;20161;-75
2023/07/28 18:19:15;;;;;;;2.42;1.80;;;;;;;-144.32;100.00;68061.97;10201379;29;20051;-78
2023/07/28 18:24:20;;;;;;;2.88;2.25;;;;;;;-144.32;100.00;68061.97;10205101;28;20126;-76
2023/07/28 18:29:21;;;;;;;2.20;1.80;;;;;;;-144.32;100.00;68061.97;10203394;29;20477;-78
2023/07/28 18:34:21;;;;;;;2.47;2.10;;;;;;;-144.32;100.00;68061.97;10199625;29;20051;-75
2023/07/28 18:39:22;;;;;;;2.80;2.22;;;;;;;-144.32;100.00;68061.97;10205242;28;20074;-78
2023/07/28 18:44:24;;;;;;;3.15;2.38;;;;;;;-144.32;100.00;68061.97;10203731;29;20735;-74
2023/07/28 18:49:25;;;;;;;3.55;2.25;;;;;;;-144.32;100.00;68061.97;10202943;29;20082;-76
2023/07/28 18:54:26;;;;;;;3.40;2.38;;;;;;;-144.32;100.00;68061.97;10203649;29;20050;-79
2023/07/28 18:59:27;;;;;;;2.92;2.50;;;;;;;-144.32;100.00;68061.97;10186535;29;20040;-81
2023/07/28 19:04:28;;;;;;;3.80;2.65;;;;;;;-144.32;100.00;68061.97;10202578;29;20061;-79
2023/07/28 19:09:28;;;;;;;5.40;3.30;;;;;;;-144.32;100.00;68061.97;10206598;28;20039;-80
2023/07/28 19:14:29;;;;;;;3.25;2.47;;;;;;;-144.32;100.00;68061.97;10203432;29;20473;-80
2023/07/28 19:19:29;;;;;;;3.35;2.50;;;;;;;-144.32;100.00;68061.97;10207636;28;20067;-78
2023/07/28 19:24:30;;;;;;;3.35;2.67;;;;;;;-144.32;100.00;68061.97;10233569;28;20035;-80
2023/07/28 19:29:30;;;;;;;4.68;2.83;;;;;;;-144.32;100.00;68061.97;10193297;29;20749;-79
2023/07/28 19:34:32;;;;;;;5.70;3.03;;;;;;;-144.32;100.00;68061.97;10229012;29;20023;-79
2023/07/28 19:39:33;;;;;;;2.83;2.35;;;;;;;-144.32;100.00;68061.97;10235631;28;20035;-78
2023/07/28 19:44:34;;;;;;;3.88;2.78;;;;;;;-144.32;100.00;68061.97;10216987;29;20152;-80
2023/07/28 19:49:34;;;;;;;3.25;2.92;;;;;;;-144.32;100.00;68061.97;10206062;28;20230;-78
2023/07/28 19:54:35;;;;;;;4.00;3.05;;;;;;;-144.32;100.00;68061.97;10203594;28;20040;-78
2023/07/28 19:59:35;;;;;;;3.35;2.20;;;;;;;-144.32;100.00;68061.97;10203884;29;20062;-77
2023/07/28 20:04:37;;;;;;;2.58;2.17;;;;;;;-144.32;100.00;68061.97;10212550;28;20043;-78
2023/07/28 20:09:38;;;;;;;2.67;2.20;;;;;;;-144.32;100.00;68061.97;10210729;28;20111;-82
2023/07/28 20:14:38;;;;;;;2.28;2.00;;;;;;;-144.32;100.00;68061.97;10201797;29;20039;-82
2023/07/28 20:19:39;;;;;;;2.72;2.33;;;;;;;-144.32;100.00;68061.97;10205331;29;20051;-81
2023/07/28 20:24:40;;;;;;;2.92;2.25;;;;;;;-144.32;100.00;68061.97;10205625;29;20051;-81
2023/07/28 20:29:40;;;;;;;3.17;2.58;;;;;;;-144.32;100.00;68061.97;10181673;29;20440;-81
2023/07/28 20:34:42;;;;;;;3.13;2.75;;;;;;;-144.32;100.00;68061.97;10200476;28;20083;-81
2023/07/28 20:39:42;;;;;;;2.72;2.40;;;;;;;-144.32;100.00;68061.97;10205083;28;20163;-77
2023/07/28 20:44:43;;;;;;;3.78;3.10;;;;;;;-144.32;100.00;68061.97;10201953;29;20036;-79
2023/07/28 20:49:44;;;;;;;3.80;2.92;;;;;;;-144.32;100.00;68061.97;10210824;28;20050;-76
2023/07/28 20:54:48;;;;;;;2.15;1.95;;;;;;;-144.32;100.00;68061.97;10181344;28;20043;-77
2023/07/28 20:59:49;;;;;;;2.50;2.28;;;;;;;-144.32;100.00;68061.97;10204428;28;20047;-78
2023/07/28 21:04:49;;;;;;;3.25;2.42;;;;;;;-144.32;100.00;68061.97;10207174;29;20104;-78
2023/07/28 21:09:51;;;;;;;3.65;2.95;;;;;;;-144.32;100.00;68061.97;10192111;28;20047;-77
2023/07/28 21:14:53;;;;;;;3.65;2.58;;;;;;;-144.32;100.00;68061.97;10200981;29;20040;-78
2023/07/28 21:19:53;;;;;;;2.92;2.42;;;;;;;-144.32;100.00;68061.97;10201766;29;20131;-79
2023/07/28 21:24:54;;;;;;;2.80;2.30;;;;;;;-144.32;100.00;68061.97;10206255;29;20047;-75
2023/07/28 21:29:54;;;;;;;2.15;1.95;;;;;;;-144.32;100.00;68061.97;10203716;29;20106;-81
2023/07/28 21:34:55;;;;;;;2.97;2.10;;;;;;;-144.32;100.00;68061.97;10205776;29;20055;-76
2023/07/28 21:39:56;;;;;;;3.00;2.70;;;;;;;-144.32;100.00;68061.97;10216810;28;20048;-77
2023/07/28 21:44:59;;;;;;;3.30;2.97;;;;;;;-144.32;100.00;68061.97;10212770;28;20096;-80
2023/07/28 21:50:00;;;;;;;3.08;2.75;;;;;;;-144.32;100.00;68061.97;10214845;29;20043;-78
2023/07/28 21:55:00;;;;;;;3.22;2.65;;;;;;;-144.32;100.00;68061.97;10208918;29;20047;-79
2023/07/28 22:00:01;;;;;;;4.20;2.60;;;;;;;-144.32;100.00;68061.97;10218269;29;20130;-77
2023/07/28 22:05:01;;;;;;;3.15;2.20;;;;;;;-144.32;100.00;68061.97;10209308;29;20043;-78
2023/07/28 22:10:05;;;;;;;3.30;2.85;;;;;;;-144.32;100.00;68061.97;10199344;28;20078;-77
2023/07/28 22:15:06;;;;;;;3.17;2.75;;;;;;;-144.32;100.00;68061.97;10192704;29;20114;-78
2023/07/28 22:20:07;;;;;;;4.22;2.70;;;;;;;-144.32;100.00;68061.97;10211682;29;20055;-77
2023/07/28 22:25:08;;;;;;;4.40;3.13;;;;;;;-144.32;100.00;68061.97;10207215;29;20048;-81
2023/07/28 22:30:09;;;;;;;5.78;3.58;;;;;;;-144.32;100.00;68061.97;10209161;29;20116;-82
2023/07/28 22:35:10;;;;;;;4.90;3.17;;;;;;;-144.32;100.00;68061.97;10203986;29;20055;-80
2023/07/28 22:40:11;;;;;;;4.18;3.40;;;;;;;-144.32;100.00;68061.97;10197647;29;20047;-77
2023/07/28 22:45:11;;;;;;;6.15;3.50;;;;;;;-144.32;100.00;68061.97;10196639;29;20548;-76
2023/07/28 22:50:12;;;;;;;3.85;3.13;;;;;;;-144.32;100.00;68061.97;10202252;29;20134;-77